EKVD weather

Kolding Vamdrup Airfield
Kolding / Vamdrup, South Denmark, Denmark

Public forecast

Using degrees Celsius for public forecast. Weather courtesy of forecast.io.

Current aviation weather report (METAR) for Kolding Vamdrup Airfield

Retrieved 2020/03/29 13:50 UTC (1 hour ago):

EKVD 291350Z 02014KT 350V060 CAVOK 05/M13 Q1033

Closest aviation forecast (TAF) to Kolding Vamdrup Airfield

Closest forecast is Skrydstrup Air Base, 13.1 nm (24.3 km) S. Retrieved 2020/03/29 15:31 UTC (0 seconds ago):

TAF EKSP 291415Z 2915/3015 36012KT 9999 FEW040 TEMPO 2915/2916 02015G25KT BECMG 2917/2920 28008KT TEMPO 2922/3007 2000 -SHSN BKN010 SCT015TCU BECMG 3008/3011 03012G22KT